sensor_id;sensor_type;location;lat;lon;timestamp;temperature;humidity
66608;DHT22;53462;39.616;8.824;2023-09-07T00:01:31;22.40;70.90
66608;DHT22;53462;39.616;8.824;2023-09-07T00:03:57;22.50;71.00
66608;DHT22;53462;39.616;8.824;2023-09-07T00:06:23;22.40;71.20
66608;DHT22;53462;39.616;8.824;2023-09-07T00:08:49;22.40;71.40
66608;DHT22;53462;39.616;8.824;2023-09-07T00:11:14;22.40;71.50
66608;DHT22;53462;39.616;8.824;2023-09-07T00:13:40;22.40;71.60
66608;DHT22;53462;39.616;8.824;2023-09-07T00:16:06;22.40;71.60
66608;DHT22;53462;39.616;8.824;2023-09-07T00:18:34;22.30;71.70
66608;DHT22;53462;39.616;8.824;2023-09-07T00:21:00;22.30;72.00
66608;DHT22;53462;39.616;8.824;2023-09-07T00:23:26;22.30;72.10
66608;DHT22;53462;39.616;8.824;2023-09-07T00:25:52;22.30;72.10
66608;DHT22;53462;39.616;8.824;2023-09-07T00:28:18;22.40;72.10
66608;DHT22;53462;39.616;8.824;2023-09-07T00:30:44;22.30;72.40
66608;DHT22;53462;39.616;8.824;2023-09-07T00:33:10;22.20;72.60
66608;DHT22;53462;39.616;8.824;2023-09-07T00:35:36;22.20;72.80
66608;DHT22;53462;39.616;8.824;2023-09-07T00:38:03;21.70;72.30
66608;DHT22;53462;39.616;8.824;2023-09-07T00:40:29;21.50;72.60
66608;DHT22;53462;39.616;8.824;2023-09-07T00:42:55;21.50;72.70
66608;DHT22;53462;39.616;8.824;2023-09-07T00:45:21;21.40;72.70
66608;DHT22;53462;39.616;8.824;2023-09-07T00:47:47;21.30;73.20
66608;DHT22;53462;39.616;8.824;2023-09-07T00:50:13;21.30;73.40
66608;DHT22;53462;39.616;8.824;2023-09-07T00:52:42;21.40;73.40
66608;DHT22;53462;39.616;8.824;2023-09-07T00:55:09;21.30;73.80
66608;DHT22;53462;39.616;8.824;2023-09-07T00:57:36;21.10;74.30
66608;DHT22;53462;39.616;8.824;2023-09-07T01:00:05;21.00;74.70
66608;DHT22;53462;39.616;8.824;2023-09-07T01:02:33;20.90;75.00
66608;DHT22;53462;39.616;8.824;2023-09-07T01:05:01;20.90;75.30
66608;DHT22;53462;39.616;8.824;2023-09-07T01:07:37;20.90;75.50
66608;DHT22;53462;39.616;8.824;2023-09-07T01:10:03;20.80;75.50
66608;DHT22;53462;39.616;8.824;2023-09-07T01:12:30;20.80;75.30
66608;DHT22;53462;39.616;8.824;2023-09-07T01:14:56;20.60;75.60
66608;DHT22;53462;39.616;8.824;2023-09-07T01:17:23;20.40;76.00
66608;DHT22;53462;39.616;8.824;2023-09-07T01:19:50;20.40;76.00
66608;DHT22;53462;39.616;8.824;2023-09-07T01:22:21;20.30;76.30
66608;DHT22;53462;39.616;8.824;2023-09-07T01:24:51;20.40;76.60
66608;DHT22;53462;39.616;8.824;2023-09-07T01:27:18;20.30;76.70
66608;DHT22;53462;39.616;8.824;2023-09-07T01:29:44;20.20;76.90
66608;DHT22;53462;39.616;8.824;2023-09-07T01:32:10;20.20;77.20
66608;DHT22;53462;39.616;8.824;2023-09-07T01:34:36;20.10;77.50
66608;DHT22;53462;39.616;8.824;2023-09-07T01:37:03;19.90;77.70
66608;DHT22;53462;39.616;8.824;2023-09-07T01:39:29;19.90;78.20
66608;DHT22;53462;39.616;8.824;2023-09-07T01:41:55;19.90;78.60
66608;DHT22;53462;39.616;8.824;2023-09-07T01:44:20;19.90;78.60
66608;DHT22;53462;39.616;8.824;2023-09-07T01:46:46;19.90;78.70
66608;DHT22;53462;39.616;8.824;2023-09-07T01:49:12;19.80;78.70
66608;DHT22;53462;39.616;8.824;2023-09-07T01:51:38;19.70;78.60
66608;DHT22;53462;39.616;8.824;2023-09-07T01:54:04;19.70;78.60
66608;DHT22;53462;39.616;8.824;2023-09-07T01:56:31;19.70;78.80
66608;DHT22;53462;39.616;8.824;2023-09-07T01:58:57;19.80;78.60
66608;DHT22;53462;39.616;8.824;2023-09-07T02:01:24;20.00;78.40
66608;DHT22;53462;39.616;8.824;2023-09-07T02:03:51;20.10;77.80
66608;DHT22;53462;39.616;8.824;2023-09-07T02:06:18;20.20;77.50
66608;DHT22;53462;39.616;8.824;2023-09-07T02:08:44;20.30;77.40
66608;DHT22;53462;39.616;8.824;2023-09-07T02:11:10;20.40;77.30
66608;DHT22;53462;39.616;8.824;2023-09-07T02:13:37;20.40;77.00
66608;DHT22;53462;39.616;8.824;2023-09-07T02:16:05;20.40;76.70
66608;DHT22;53462;39.616;8.824;2023-09-07T02:18:34;20.40;76.90
66608;DHT22;53462;39.616;8.824;2023-09-07T02:21:03;20.40;76.90
66608;DHT22;53462;39.616;8.824;2023-09-07T02:23:32;20.30;77.10
66608;DHT22;53462;39.616;8.824;2023-09-07T02:25:59;20.20;77.30
66608;DHT22;53462;39.616;8.824;2023-09-07T02:28:25;20.20;77.60
66608;DHT22;53462;39.616;8.824;2023-09-07T02:30:52;20.20;77.80
66608;DHT22;53462;39.616;8.824;2023-09-07T02:33:18;20.30;77.90
66608;DHT22;53462;39.616;8.824;2023-09-07T02:35:44;20.30;77.70
66608;DHT22;53462;39.616;8.824;2023-09-07T02:38:10;20.50;77.40
66608;DHT22;53462;39.616;8.824;2023-09-07T02:40:43;20.40;77.30
66608;DHT22;53462;39.616;8.824;2023-09-07T02:43:09;20.40;77.10
66608;DHT22;53462;39.616;8.824;2023-09-07T02:45:36;20.40;77.10
66608;DHT22;53462;39.616;8.824;2023-09-07T02:48:03;20.30;77.50
66608;DHT22;53462;39.616;8.824;2023-09-07T02:50:32;20.30;78.10
66608;DHT22;53462;39.616;8.824;2023-09-07T02:52:59;20.40;78.30
66608;DHT22;53462;39.616;8.824;2023-09-07T02:55:27;20.30;78.50
66608;DHT22;53462;39.616;8.824;2023-09-07T02:57:56;20.10;78.70
66608;DHT22;53462;39.616;8.824;2023-09-07T03:00:22;19.90;79.30
66608;DHT22;53462;39.616;8.824;2023-09-07T03:02:50;19.80;79.90
66608;DHT22;53462;39.616;8.824;2023-09-07T03:05:16;19.90;80.30
66608;DHT22;53462;39.616;8.824;2023-09-07T03:07:45;20.00;80.20
66608;DHT22;53462;39.616;8.824;2023-09-07T03:10:11;20.10;80.20
66608;DHT22;53462;39.616;8.824;2023-09-07T03:12:38;19.90;80.30
66608;DHT22;53462;39.616;8.824;2023-09-07T03:15:05;20.10;80.50
66608;DHT22;53462;39.616;8.824;2023-09-07T03:17:31;20.20;79.90
66608;DHT22;53462;39.616;8.824;2023-09-07T03:19:58;20.20;79.70
66608;DHT22;53462;39.616;8.824;2023-09-07T03:22:24;20.10;79.90
66608;DHT22;53462;39.616;8.824;2023-09-07T03:24:53;20.30;79.50
66608;DHT22;53462;39.616;8.824;2023-09-07T03:27:19;20.20;79.10
66608;DHT22;53462;39.616;8.824;2023-09-07T03:29:49;20.10;79.50
66608;DHT22;53462;39.616;8.824;2023-09-07T03:32:19;20.20;79.30
66608;DHT22;53462;39.616;8.824;2023-09-07T03:34:44;20.20;79.10
66608;DHT22;53462;39.616;8.824;2023-09-07T03:37:10;19.90;79.20
66608;DHT22;53462;39.616;8.824;2023-09-07T03:39:37;19.70;80.10
66608;DHT22;53462;39.616;8.824;2023-09-07T03:42:04;19.80;80.10
66608;DHT22;53462;39.616;8.824;2023-09-07T03:44:30;19.80;80.00
66608;DHT22;53462;39.616;8.824;2023-09-07T03:46:56;19.70;80.20
66608;DHT22;53462;39.616;8.824;2023-09-07T03:49:22;19.60;80.70
66608;DHT22;53462;39.616;8.824;2023-09-07T03:51:48;19.80;80.70
66608;DHT22;53462;39.616;8.824;2023-09-07T03:54:14;20.00;80.50
66608;DHT22;53462;39.616;8.824;2023-09-07T03:56:39;19.90;80.00
66608;DHT22;53462;39.616;8.824;2023-09-07T03:59:07;19.90;80.10
66608;DHT22;53462;39.616;8.824;2023-09-07T04:01:34;19.70;80.60
66608;DHT22;53462;39.616;8.824;2023-09-07T04:04:00;19.60;80.60
66608;DHT22;53462;39.616;8.824;2023-09-07T04:06:26;19.50;80.90
66608;DHT22;53462;39.616;8.824;2023-09-07T04:08:52;19.60;81.30
66608;DHT22;53462;39.616;8.824;2023-09-07T04:11:18;19.70;81.60
66608;DHT22;53462;39.616;8.824;2023-09-07T04:13:43;19.70;81.20
66608;DHT22;53462;39.616;8.824;2023-09-07T04:16:09;19.70;81.30
66608;DHT22;53462;39.616;8.824;2023-09-07T04:18:36;19.70;81.10
66608;DHT22;53462;39.616;8.824;2023-09-07T04:21:08;19.50;81.70
66608;DHT22;53462;39.616;8.824;2023-09-07T04:23:35;19.20;82.20
66608;DHT22;53462;39.616;8.824;2023-09-07T04:26:06;19.00;83.20
66608;DHT22;53462;39.616;8.824;2023-09-07T04:28:33;18.80;84.00
66608;DHT22;53462;39.616;8.824;2023-09-07T04:30:59;18.70;84.70
66608;DHT22;53462;39.616;8.824;2023-09-07T04:33:25;18.90;84.90
66608;DHT22;53462;39.616;8.824;2023-09-07T04:35:51;18.90;84.50
66608;DHT22;53462;39.616;8.824;2023-09-07T04:38:17;18.80;84.40
66608;DHT22;53462;39.616;8.824;2023-09-07T04:40:43;18.90;84.70
66608;DHT22;53462;39.616;8.824;2023-09-07T04:43:08;18.90;84.30
66608;DHT22;53462;39.616;8.824;2023-09-07T04:45:34;18.70;84.40
66608;DHT22;53462;39.616;8.824;2023-09-07T04:48:01;18.60;84.70
66608;DHT22;53462;39.616;8.824;2023-09-07T04:50:27;18.60;84.70
66608;DHT22;53462;39.616;8.824;2023-09-07T04:52:53;18.80;84.50
66608;DHT22;53462;39.616;8.824;2023-09-07T04:55:19;18.80;84.10
66608;DHT22;53462;39.616;8.824;2023-09-07T04:57:45;18.70;84.10
66608;DHT22;53462;39.616;8.824;2023-09-07T05:00:12;18.60;84.50
66608;DHT22;53462;39.616;8.824;2023-09-07T05:02:38;18.60;84.40
66608;DHT22;53462;39.616;8.824;2023-09-07T05:05:07;18.50;84.60
66608;DHT22;53462;39.616;8.824;2023-09-07T05:07:33;18.50;84.80
66608;DHT22;53462;39.616;8.824;2023-09-07T05:10:00;18.50;85.10
66608;DHT22;53462;39.616;8.824;2023-09-07T05:12:26;18.60;84.90
66608;DHT22;53462;39.616;8.824;2023-09-07T05:14:52;18.60;85.10
66608;DHT22;53462;39.616;8.824;2023-09-07T05:17:18;18.70;84.90
66608;DHT22;53462;39.616;8.824;2023-09-07T05:19:44;18.70;84.80
66608;DHT22;53462;39.616;8.824;2023-09-07T05:22:10;18.70;84.80
66608;DHT22;53462;39.616;8.824;2023-09-07T05:24:40;18.70;84.70
66608;DHT22;53462;39.616;8.824;2023-09-07T05:27:06;18.80;84.60
66608;DHT22;53462;39.616;8.824;2023-09-07T05:29:33;19.00;84.40
66608;DHT22;53462;39.616;8.824;2023-09-07T05:31:59;19.20;83.50
66608;DHT22;53462;39.616;8.824;2023-09-07T05:34:24;19.40;82.60
66608;DHT22;53462;39.616;8.824;2023-09-07T05:36:50;19.60;82.00
66608;DHT22;53462;39.616;8.824;2023-09-07T05:39:16;19.70;81.50
66608;DHT22;53462;39.616;8.824;2023-09-07T05:41:42;19.80;80.90
66608;DHT22;53462;39.616;8.824;2023-09-07T05:44:08;19.80;81.10
66608;DHT22;53462;39.616;8.824;2023-09-07T05:46:34;19.90;80.60
66608;DHT22;53462;39.616;8.824;2023-09-07T05:49:00;20.10;80.40
66608;DHT22;53462;39.616;8.824;2023-09-07T05:51:26;20.20;79.70
66608;DHT22;53462;39.616;8.824;2023-09-07T05:53:53;20.40;79.50
66608;DHT22;53462;39.616;8.824;2023-09-07T05:56:21;20.50;79.30
66608;DHT22;53462;39.616;8.824;2023-09-07T05:58:47;20.60;79.10
66608;DHT22;53462;39.616;8.824;2023-09-07T06:01:12;20.90;78.50
66608;DHT22;53462;39.616;8.824;2023-09-07T06:03:39;21.00;76.60
66608;DHT22;53462;39.616;8.824;2023-09-07T06:06:05;21.00;76.70
66608;DHT22;53462;39.616;8.824;2023-09-07T06:08:31;21.00;76.60
66608;DHT22;53462;39.616;8.824;2023-09-07T06:10:57;21.30;76.50
66608;DHT22;53462;39.616;8.824;2023-09-07T06:13:23;21.50;75.40
66608;DHT22;53462;39.616;8.824;2023-09-07T06:15:49;21.40;75.50
66608;DHT22;53462;39.616;8.824;2023-09-07T06:18:15;21.30;75.60
66608;DHT22;53462;39.616;8.824;2023-09-07T06:20:41;21.50;76.00
66608;DHT22;53462;39.616;8.824;2023-09-07T06:23:07;21.60;75.80
66608;DHT22;53462;39.616;8.824;2023-09-07T06:25:33;21.70;75.30
66608;DHT22;53462;39.616;8.824;2023-09-07T06:28:00;21.80;74.80
66608;DHT22;53462;39.616;8.824;2023-09-07T06:30:26;22.10;73.80
66608;DHT22;53462;39.616;8.824;2023-09-07T06:32:52;22.10;72.90
66608;DHT22;53462;39.616;8.824;2023-09-07T06:35:19;22.40;73.00
66608;DHT22;53462;39.616;8.824;2023-09-07T06:37:47;22.20;73.10
66608;DHT22;53462;39.616;8.824;2023-09-07T06:40:15;22.10;73.90
66608;DHT22;53462;39.616;8.824;2023-09-07T06:42:44;22.20;73.40
66608;DHT22;53462;39.616;8.824;2023-09-07T06:45:14;22.40;73.90
66608;DHT22;53462;39.616;8.824;2023-09-07T06:47:40;22.30;73.70
66608;DHT22;53462;39.616;8.824;2023-09-07T06:50:07;22.40;73.70
66608;DHT22;53462;39.616;8.824;2023-09-07T06:52:33;22.60;73.10
66608;DHT22;53462;39.616;8.824;2023-09-07T06:54:59;22.60;71.40
66608;DHT22;53462;39.616;8.824;2023-09-07T06:57:25;22.80;71.70
66608;DHT22;53462;39.616;8.824;2023-09-07T06:59:52;22.90;71.80
66608;DHT22;53462;39.616;8.824;2023-09-07T07:02:18;23.00;71.40
66608;DHT22;53462;39.616;8.824;2023-09-07T07:04:44;23.40;69.80
66608;DHT22;53462;39.616;8.824;2023-09-07T07:07:13;23.60;69.50
66608;DHT22;53462;39.616;8.824;2023-09-07T07:09:40;23.60;68.70
66608;DHT22;53462;39.616;8.824;2023-09-07T07:12:06;23.80;68.80
66608;DHT22;53462;39.616;8.824;2023-09-07T07:14:32;23.90;67.60
66608;DHT22;53462;39.616;8.824;2023-09-07T07:16:58;24.20;67.00
66608;DHT22;53462;39.616;8.824;2023-09-07T07:19:24;24.20;65.30
66608;DHT22;53462;39.616;8.824;2023-09-07T07:21:51;24.50;66.00
66608;DHT22;53462;39.616;8.824;2023-09-07T07:24:17;24.50;64.80
66608;DHT22;53462;39.616;8.824;2023-09-07T07:26:44;24.70;65.30
66608;DHT22;53462;39.616;8.824;2023-09-07T07:29:10;24.90;64.10
66608;DHT22;53462;39.616;8.824;2023-09-07T07:31:36;24.70;64.60
66608;DHT22;53462;39.616;8.824;2023-09-07T07:34:02;25.00;64.20
66608;DHT22;53462;39.616;8.824;2023-09-07T07:36:28;25.30;63.80
66608;DHT22;53462;39.616;8.824;2023-09-07T07:38:54;25.50;62.60
66608;DHT22;53462;39.616;8.824;2023-09-07T07:41:20;25.60;63.00
66608;DHT22;53462;39.616;8.824;2023-09-07T07:43:46;25.50;61.80
66608;DHT22;53462;39.616;8.824;2023-09-07T07:46:12;25.90;61.30
66608;DHT22;53462;39.616;8.824;2023-09-07T07:48:42;25.40;60.50
66608;DHT22;53462;39.616;8.824;2023-09-07T07:51:08;25.90;60.80
66608;DHT22;53462;39.616;8.824;2023-09-07T07:53:35;26.00;60.90
66608;DHT22;53462;39.616;8.824;2023-09-07T07:56:01;25.90;60.50
66608;DHT22;53462;39.616;8.824;2023-09-07T07:58:28;25.80;60.30
66608;DHT22;53462;39.616;8.824;2023-09-07T08:00:55;25.90;59.20
66608;DHT22;53462;39.616;8.824;2023-09-07T08:03:26;26.10;58.80
66608;DHT22;53462;39.616;8.824;2023-09-07T08:05:53;26.10;59.00
66608;DHT22;53462;39.616;8.824;2023-09-07T08:08:19;26.20;56.20
66608;DHT22;53462;39.616;8.824;2023-09-07T08:10:45;26.50;56.50
66608;DHT22;53462;39.616;8.824;2023-09-07T08:13:36;26.90;54.90
66608;DHT22;53462;39.616;8.824;2023-09-07T08:16:04;27.10;52.80
66608;DHT22;53462;39.616;8.824;2023-09-07T08:18:33;27.00;50.70
66608;DHT22;53462;39.616;8.824;2023-09-07T08:21:00;27.20;51.50
66608;DHT22;53462;39.616;8.824;2023-09-07T08:23:26;27.10;50.70
66608;DHT22;53462;39.616;8.824;2023-09-07T08:25:53;27.30;50.90
66608;DHT22;53462;39.616;8.824;2023-09-07T08:28:21;27.70;49.50
66608;DHT22;53462;39.616;8.824;2023-09-07T08:30:51;27.80;47.50
66608;DHT22;53462;39.616;8.824;2023-09-07T08:33:21;28.10;47.60
66608;DHT22;53462;39.616;8.824;2023-09-07T08:35:55;28.70;46.00
66608;DHT22;53462;39.616;8.824;2023-09-07T08:38:21;28.50;47.10
66608;DHT22;53462;39.616;8.824;2023-09-07T08:40:54;28.40;44.90
66608;DHT22;53462;39.616;8.824;2023-09-07T08:43:23;28.50;45.50
66608;DHT22;53462;39.616;8.824;2023-09-07T08:46:08;28.70;44.00
66608;DHT22;53462;39.616;8.824;2023-09-07T08:48:36;28.80;43.90
66608;DHT22;53462;39.616;8.824;2023-09-07T08:51:03;29.10;43.10
66608;DHT22;53462;39.616;8.824;2023-09-07T08:53:30;29.40;43.40
66608;DHT22;53462;39.616;8.824;2023-09-07T08:55:57;29.50;42.60
66608;DHT22;53462;39.616;8.824;2023-09-07T08:58:23;29.50;42.70
66608;DHT22;53462;39.616;8.824;2023-09-07T09:00:49;29.60;42.70
66608;DHT22;53462;39.616;8.824;2023-09-07T09:03:17;30.30;41.10
66608;DHT22;53462;39.616;8.824;2023-09-07T09:05:43;30.70;40.00
66608;DHT22;53462;39.616;8.824;2023-09-07T09:08:10;30.10;40.40
66608;DHT22;53462;39.616;8.824;2023-09-07T09:10:38;29.70;42.30
66608;DHT22;53462;39.616;8.824;2023-09-07T09:13:05;29.70;41.60
66608;DHT22;53462;39.616;8.824;2023-09-07T09:15:31;29.80;40.30
66608;DHT22;53462;39.616;8.824;2023-09-07T09:17:57;30.40;40.30
66608;DHT22;53462;39.616;8.824;2023-09-07T09:20:23;30.40;41.50
66608;DHT22;53462;39.616;8.824;2023-09-07T09:22:53;30.50;40.60
66608;DHT22;53462;39.616;8.824;2023-09-07T09:25:21;30.50;39.60
66608;DHT22;53462;39.616;8.824;2023-09-07T09:27:50;30.30;39.40
66608;DHT22;53462;39.616;8.824;2023-09-07T09:30:16;30.40;39.50
66608;DHT22;53462;39.616;8.824;2023-09-07T09:32:43;30.80;38.70
66608;DHT22;53462;39.616;8.824;2023-09-07T09:35:09;30.80;39.60
66608;DHT22;53462;39.616;8.824;2023-09-07T09:37:48;31.00;38.90
66608;DHT22;53462;39.616;8.824;2023-09-07T09:40:14;31.20;38.90
66608;DHT22;53462;39.616;8.824;2023-09-07T09:42:43;31.10;38.70
66608;DHT22;53462;39.616;8.824;2023-09-07T09:45:10;31.40;37.90
66608;DHT22;53462;39.616;8.824;2023-09-07T09:47:41;31.50;38.40
66608;DHT22;53462;39.616;8.824;2023-09-07T09:50:09;31.80;38.10
66608;DHT22;53462;39.616;8.824;2023-09-07T09:52:36;31.50;38.00
66608;DHT22;53462;39.616;8.824;2023-09-07T09:55:05;31.40;38.20
66608;DHT22;53462;39.616;8.824;2023-09-07T09:57:37;31.80;38.30
66608;DHT22;53462;39.616;8.824;2023-09-07T10:00:06;31.80;38.10
66608;DHT22;53462;39.616;8.824;2023-09-07T10:02:50;32.00;37.60
66608;DHT22;53462;39.616;8.824;2023-09-07T10:05:18;31.80;36.10
66608;DHT22;53462;39.616;8.824;2023-09-07T10:07:48;32.40;36.40
66608;DHT22;53462;39.616;8.824;2023-09-07T10:10:17;32.50;36.20
66608;DHT22;53462;39.616;8.824;2023-09-07T10:12:45;32.40;35.20
66608;DHT22;53462;39.616;8.824;2023-09-07T10:15:25;31.80;37.10
66608;DHT22;53462;39.616;8.824;2023-09-07T10:18:11;32.20;37.20
66608;DHT22;53462;39.616;8.824;2023-09-07T10:20:56;32.40;34.70
66608;DHT22;53462;39.616;8.824;2023-09-07T10:23:39;32.00;35.00
66608;DHT22;53462;39.616;8.824;2023-09-07T10:26:10;32.30;34.90
66608;DHT22;53462;39.616;8.824;2023-09-07T10:28:36;32.10;35.00
66608;DHT22;53462;39.616;8.824;2023-09-07T10:31:04;31.80;35.20
66608;DHT22;53462;39.616;8.824;2023-09-07T10:33:32;31.90;35.00
66608;DHT22;53462;39.616;8.824;2023-09-07T10:35:58;32.40;34.00
66608;DHT22;53462;39.616;8.824;2023-09-07T10:38:25;32.70;33.80
66608;DHT22;53462;39.616;8.824;2023-09-07T10:40:59;33.20;34.50
66608;DHT22;53462;39.616;8.824;2023-09-07T10:43:32;33.70;33.70
66608;DHT22;53462;39.616;8.824;2023-09-07T10:45:59;33.50;32.90
66608;DHT22;53462;39.616;8.824;2023-09-07T10:48:29;33.20;33.20
66608;DHT22;53462;39.616;8.824;2023-09-07T10:50:55;33.00;33.10
66608;DHT22;53462;39.616;8.824;2023-09-07T10:53:30;32.90;32.70
66608;DHT22;53462;39.616;8.824;2023-09-07T10:56:02;32.90;33.10
66608;DHT22;53462;39.616;8.824;2023-09-07T10:58:36;32.80;33.10
66608;DHT22;53462;39.616;8.824;2023-09-07T11:01:08;32.90;33.20
66608;DHT22;53462;39.616;8.824;2023-09-07T11:03:35;33.20;33.50
66608;DHT22;53462;39.616;8.824;2023-09-07T11:06:10;33.60;33.00
66608;DHT22;53462;39.616;8.824;2023-09-07T11:08:37;33.60;32.40
66608;DHT22;53462;39.616;8.824;2023-09-07T11:11:03;33.50;32.80
66608;DHT22;53462;39.616;8.824;2023-09-07T11:13:30;33.80;32.30
66608;DHT22;53462;39.616;8.824;2023-09-07T11:15:57;33.30;32.30
66608;DHT22;53462;39.616;8.824;2023-09-07T11:18:25;33.30;32.30
66608;DHT22;53462;39.616;8.824;2023-09-07T11:20:52;33.30;32.40
66608;DHT22;53462;39.616;8.824;2023-09-07T11:23:19;33.30;32.50
66608;DHT22;53462;39.616;8.824;2023-09-07T11:25:47;33.40;32.10
66608;DHT22;53462;39.616;8.824;2023-09-07T11:28:14;33.20;32.70
66608;DHT22;53462;39.616;8.824;2023-09-07T11:30:54;32.70;32.70
66608;DHT22;53462;39.616;8.824;2023-09-07T11:33:21;33.20;32.70
66608;DHT22;53462;39.616;8.824;2023-09-07T11:35:47;33.70;32.50
66608;DHT22;53462;39.616;8.824;2023-09-07T11:38:15;33.70;31.50
66608;DHT22;53462;39.616;8.824;2023-09-07T11:40:41;34.10;32.40
66608;DHT22;53462;39.616;8.824;2023-09-07T11:43:17;33.70;31.80
66608;DHT22;53462;39.616;8.824;2023-09-07T11:45:46;34.00;32.50
66608;DHT22;53462;39.616;8.824;2023-09-07T11:48:12;33.90;32.00
66608;DHT22;53462;39.616;8.824;2023-09-07T11:50:39;34.50;30.80
66608;DHT22;53462;39.616;8.824;2023-09-07T11:53:06;33.90;31.30
66608;DHT22;53462;39.616;8.824;2023-09-07T11:55:33;34.00;32.60
66608;DHT22;53462;39.616;8.824;2023-09-07T11:57:59;34.10;30.60
66608;DHT22;53462;39.616;8.824;2023-09-07T12:00:25;34.60;30.80
66608;DHT22;53462;39.616;8.824;2023-09-07T12:02:52;34.70;30.90
66608;DHT22;53462;39.616;8.824;2023-09-07T12:05:18;33.90;33.90
66608;DHT22;53462;39.616;8.824;2023-09-07T12:07:45;33.40;34.70
66608;DHT22;53462;39.616;8.824;2023-09-07T12:10:12;32.80;35.50
66608;DHT22;53462;39.616;8.824;2023-09-07T12:12:40;32.80;35.70
66608;DHT22;53462;39.616;8.824;2023-09-07T12:15:06;32.80;35.50
66608;DHT22;53462;39.616;8.824;2023-09-07T12:17:33;33.20;34.50
66608;DHT22;53462;39.616;8.824;2023-09-07T12:19:59;33.80;33.90
66608;DHT22;53462;39.616;8.824;2023-09-07T12:22:26;33.60;34.90
66608;DHT22;53462;39.616;8.824;2023-09-07T12:24:52;34.10;33.40
66608;DHT22;53462;39.616;8.824;2023-09-07T12:27:19;34.40;32.90
66608;DHT22;53462;39.616;8.824;2023-09-07T12:29:45;34.60;32.30
66608;DHT22;53462;39.616;8.824;2023-09-07T12:32:11;35.10;32.20
66608;DHT22;53462;39.616;8.824;2023-09-07T12:34:38;35.40;32.10
66608;DHT22;53462;39.616;8.824;2023-09-07T12:37:04;35.20;32.20
66608;DHT22;53462;39.616;8.824;2023-09-07T12:39:33;34.60;33.20
66608;DHT22;53462;39.616;8.824;2023-09-07T12:41:59;34.40;33.00
66608;DHT22;53462;39.616;8.824;2023-09-07T12:44:25;34.00;33.70
66608;DHT22;53462;39.616;8.824;2023-09-07T12:46:51;33.80;34.40
66608;DHT22;53462;39.616;8.824;2023-09-07T12:49:17;34.20;33.40
66608;DHT22;53462;39.616;8.824;2023-09-07T12:51:44;34.60;32.90
66608;DHT22;53462;39.616;8.824;2023-09-07T12:54:10;34.60;32.80
66608;DHT22;53462;39.616;8.824;2023-09-07T12:56:36;34.90;32.20
66608;DHT22;53462;39.616;8.824;2023-09-07T12:59:02;34.90;32.10
66608;DHT22;53462;39.616;8.824;2023-09-07T13:01:29;34.70;32.60
66608;DHT22;53462;39.616;8.824;2023-09-07T13:03:56;34.90;32.70
66608;DHT22;53462;39.616;8.824;2023-09-07T13:06:22;34.40;32.60
66608;DHT22;53462;39.616;8.824;2023-09-07T13:08:48;34.40;33.10
66608;DHT22;53462;39.616;8.824;2023-09-07T13:11:14;34.30;32.80
66608;DHT22;53462;39.616;8.824;2023-09-07T13:13:40;34.10;33.30
66608;DHT22;53462;39.616;8.824;2023-09-07T13:16:06;34.20;33.00
66608;DHT22;53462;39.616;8.824;2023-09-07T13:18:32;34.40;32.70
66608;DHT22;53462;39.616;8.824;2023-09-07T13:20:58;34.00;32.70
66608;DHT22;53462;39.616;8.824;2023-09-07T13:23:30;33.70;33.40
66608;DHT22;53462;39.616;8.824;2023-09-07T13:25:57;33.60;34.00
66608;DHT22;53462;39.616;8.824;2023-09-07T13:28:23;33.70;33.90
66608;DHT22;53462;39.616;8.824;2023-09-07T13:30:52;33.80;34.10
66608;DHT22;53462;39.616;8.824;2023-09-07T13:33:18;34.00;33.40
66608;DHT22;53462;39.616;8.824;2023-09-07T13:35:44;33.80;33.60
66608;DHT22;53462;39.616;8.824;2023-09-07T13:38:11;33.70;33.30
66608;DHT22;53462;39.616;8.824;2023-09-07T13:40:37;33.90;33.10
66608;DHT22;53462;39.616;8.824;2023-09-07T13:43:03;33.70;34.30
66608;DHT22;53462;39.616;8.824;2023-09-07T13:45:28;33.50;34.80
66608;DHT22;53462;39.616;8.824;2023-09-07T13:47:55;33.40;35.60
66608;DHT22;53462;39.616;8.824;2023-09-07T13:50:21;33.20;35.30
66608;DHT22;53462;39.616;8.824;2023-09-07T13:52:48;33.10;36.20
66608;DHT22;53462;39.616;8.824;2023-09-07T13:55:14;33.00;36.00
66608;DHT22;53462;39.616;8.824;2023-09-07T13:57:40;33.00;36.00
66608;DHT22;53462;39.616;8.824;2023-09-07T14:00:07;32.80;36.40
66608;DHT22;53462;39.616;8.824;2023-09-07T14:02:33;32.90;36.70
66608;DHT22;53462;39.616;8.824;2023-09-07T14:04:59;32.70;36.50
66608;DHT22;53462;39.616;8.824;2023-09-07T14:07:25;32.50;36.50
66608;DHT22;53462;39.616;8.824;2023-09-07T14:09:54;32.50;36.60
66608;DHT22;53462;39.616;8.824;2023-09-07T14:12:20;32.60;36.00
66608;DHT22;53462;39.616;8.824;2023-09-07T14:14:48;32.50;36.50
66608;DHT22;53462;39.616;8.824;2023-09-07T14:17:13;32.30;35.90
66608;DHT22;53462;39.616;8.824;2023-09-07T14:19:39;32.30;37.50
66608;DHT22;53462;39.616;8.824;2023-09-07T14:22:05;32.10;36.60
66608;DHT22;53462;39.616;8.824;2023-09-07T14:24:31;32.30;36.40
66608;DHT22;53462;39.616;8.824;2023-09-07T14:26:57;32.20;36.70
66608;DHT22;53462;39.616;8.824;2023-09-07T14:29:23;32.20;36.20
66608;DHT22;53462;39.616;8.824;2023-09-07T14:31:49;32.30;37.60
66608;DHT22;53462;39.616;8.824;2023-09-07T14:34:15;32.00;37.30
66608;DHT22;53462;39.616;8.824;2023-09-07T14:36:41;31.90;37.60
66608;DHT22;53462;39.616;8.824;2023-09-07T14:39:08;31.90;38.00
66608;DHT22;53462;39.616;8.824;2023-09-07T14:41:37;31.90;37.20
66608;DHT22;53462;39.616;8.824;2023-09-07T14:44:03;31.80;35.30
66608;DHT22;53462;39.616;8.824;2023-09-07T14:46:29;31.80;36.30
66608;DHT22;53462;39.616;8.824;2023-09-07T14:48:55;31.80;36.50
66608;DHT22;53462;39.616;8.824;2023-09-07T14:51:23;31.60;38.30
66608;DHT22;53462;39.616;8.824;2023-09-07T14:53:49;31.50;36.70
66608;DHT22;53462;39.616;8.824;2023-09-07T14:56:15;31.20;36.60
66608;DHT22;53462;39.616;8.824;2023-09-07T14:58:41;31.20;37.90
66608;DHT22;53462;39.616;8.824;2023-09-07T15:01:06;31.20;37.10
66608;DHT22;53462;39.616;8.824;2023-09-07T15:03:33;30.90;39.00
66608;DHT22;53462;39.616;8.824;2023-09-07T15:05:59;30.90;38.00
66608;DHT22;53462;39.616;8.824;2023-09-07T15:08:25;30.80;38.20
66608;DHT22;53462;39.616;8.824;2023-09-07T15:10:51;30.70;39.90
66608;DHT22;53462;39.616;8.824;2023-09-07T15:13:17;30.60;38.60
66608;DHT22;53462;39.616;8.824;2023-09-07T15:15:43;30.70;40.00
66608;DHT22;53462;39.616;8.824;2023-09-07T15:18:09;30.60;42.90
66608;DHT22;53462;39.616;8.824;2023-09-07T15:20:35;30.50;41.90
66608;DHT22;53462;39.616;8.824;2023-09-07T15:23:02;30.40;43.90
66608;DHT22;53462;39.616;8.824;2023-09-07T15:25:28;30.40;43.70
66608;DHT22;53462;39.616;8.824;2023-09-07T15:27:56;30.30;44.90
66608;DHT22;53462;39.616;8.824;2023-09-07T15:30:23;30.10;45.00